createdAt,value
2023-02-11T00:01:44.312Z,101305.63
2023-02-11T00:04:46.146Z,101308.84
2023-02-11T00:07:48.106Z,101304.44
2023-02-11T00:10:58.307Z,101300.88
2023-02-11T00:14:02.744Z,101305.06
2023-02-11T00:17:04.644Z,101311.13
2023-02-11T00:20:08.294Z,101302.25
2023-02-11T00:23:10.688Z,101306.91
2023-02-11T00:26:17.833Z,101323.03
2023-02-11T00:29:20.345Z,101319.06
2023-02-11T00:32:22.241Z,101326.00
2023-02-11T00:35:25.334Z,101310.81
2023-02-11T00:38:27.419Z,101314.09
2023-02-11T00:41:29.918Z,101305.63
2023-02-11T00:44:34.384Z,101307.78
2023-02-11T00:47:36.418Z,101295.06
2023-02-11T00:50:38.416Z,101290.19
2023-02-11T00:53:40.578Z,101284.13
2023-02-11T00:56:42.468Z,101276.44
2023-02-11T00:59:44.797Z,101275.38
2023-02-11T01:02:46.679Z,101265.19
2023-02-11T01:05:48.994Z,101249.44
2023-02-11T01:08:51.281Z,101251.81
2023-02-11T01:11:53.310Z,101259.53
2023-02-11T01:14:55.258Z,101257.44
2023-02-11T01:17:57.350Z,101246.28
2023-02-11T01:20:59.243Z,101248.75
2023-02-11T01:24:01.125Z,101237.81
2023-02-11T01:27:03.501Z,101232.78
2023-02-11T01:30:08.159Z,101239.50
2023-02-11T01:33:10.146Z,101239.50
2023-02-11T01:36:13.096Z,101239.34
2023-02-11T01:39:15.037Z,101235.88
2023-02-11T01:42:19.666Z,101244.88
2023-02-11T01:45:43.020Z,101239.28
2023-02-11T01:48:51.219Z,101236.69
2023-02-11T01:52:03.670Z,101239.44
2023-02-11T01:55:29.363Z,101219.13
2023-02-11T01:58:32.737Z,101231.88
2023-02-11T02:01:38.060Z,101229.16
2023-02-11T02:04:51.780Z,101221.44
2023-02-11T02:08:03.281Z,101224.88
2023-02-11T02:11:07.452Z,101219.25
2023-02-11T02:14:12.035Z,101226.88
2023-02-11T02:17:38.966Z,101215.59
2023-02-11T02:20:59.419Z,101212.47
2023-02-11T02:24:22.267Z,101211.44
2023-02-11T02:27:53.371Z,101200.44
2023-02-11T02:30:55.342Z,101203.75
2023-02-11T02:34:21.494Z,101208.72
2023-02-11T02:38:05.192Z,101214.69
2023-02-11T02:41:10.958Z,101217.97
2023-02-11T02:44:12.826Z,101204.88
2023-02-11T02:47:14.834Z,101202.53
2023-02-11T02:50:25.024Z,101203.38
2023-02-11T02:53:42.060Z,101204.72
2023-02-11T02:56:43.820Z,101212.31
2023-02-11T02:59:48.280Z,101218.19
2023-02-11T03:03:06.424Z,101213.75
2023-02-11T03:06:15.620Z,101200.75
2023-02-11T03:09:25.395Z,101182.53
2023-02-11T03:12:31.174Z,101189.66
2023-02-11T03:15:43.659Z,101187.78
2023-02-11T03:18:52.736Z,101182.00
2023-02-11T03:21:56.099Z,101172.50
2023-02-11T03:24:58.344Z,101166.69
2023-02-11T03:28:10.535Z,101170.63
2023-02-11T03:31:22.728Z,101167.22
2023-02-11T03:34:36.435Z,101161.38
2023-02-11T03:37:43.903Z,101149.38
2023-02-11T03:40:46.329Z,101148.66
2023-02-11T03:44:03.711Z,101146.94
2023-02-11T03:47:09.189Z,101136.81
2023-02-11T03:50:14.933Z,101135.22
2023-02-11T03:53:18.173Z,101129.28
2023-02-11T03:56:26.328Z,101121.47
2023-02-11T03:59:29.061Z,101113.69
2023-02-11T04:02:34.570Z,101104.22
2023-02-11T04:05:37.179Z,101092.34
2023-02-11T04:08:39.091Z,101096.66
2023-02-11T04:11:41.022Z,101081.91
2023-02-11T04:14:42.875Z,101080.16
2023-02-11T04:17:44.730Z,101077.84
2023-02-11T04:20:46.675Z,101076.53
2023-02-11T04:23:48.795Z,101079.38
2023-02-11T04:26:50.736Z,101090.84
2023-02-11T04:29:52.728Z,101089.13
2023-02-11T04:32:54.665Z,101093.22
2023-02-11T04:35:56.551Z,101101.50
2023-02-11T04:38:59.254Z,101107.38
2023-02-11T04:42:01.107Z,101115.66
2023-02-11T04:45:03.267Z,101109.00
2023-02-11T04:48:09.022Z,101101.50
2023-02-11T04:51:11.587Z,101115.69
2023-02-11T04:54:13.467Z,101119.13
2023-02-11T04:57:15.599Z,101120.72
2023-02-11T05:00:17.656Z,101124.16
2023-02-11T05:03:19.605Z,101110.78
2023-02-11T05:06:21.788Z,101110.53
2023-02-11T05:09:23.616Z,101109.56
2023-02-11T05:12:25.622Z,101109.75
2023-02-11T05:15:28.175Z,101110.00
2023-02-11T05:18:30.272Z,101114.34
2023-02-11T05:21:32.282Z,101108.28
2023-02-11T05:24:34.771Z,101111.72
2023-02-11T05:27:36.625Z,101109.09
2023-02-11T05:30:38.870Z,101108.13
2023-02-11T05:33:41.530Z,101087.31
2023-02-11T05:36:43.458Z,101085.81
2023-02-11T05:39:45.379Z,101080.88
2023-02-11T05:42:47.287Z,101077.28
2023-02-11T05:45:49.509Z,101071.97
2023-02-11T05:48:51.920Z,101080.47
2023-02-11T05:51:53.825Z,101076.22
2023-02-11T05:54:55.782Z,101083.63
2023-02-11T05:57:57.762Z,101086.88
2023-02-11T06:00:59.598Z,101094.31
2023-02-11T06:04:01.637Z,101084.94
2023-02-11T06:07:04.147Z,101095.25
2023-02-11T06:10:06.621Z,101084.53
2023-02-11T06:13:08.554Z,101078.78
2023-02-11T06:16:10.473Z,101063.97
2023-02-11T06:19:13.139Z,101059.00
2023-02-11T06:22:15.382Z,101068.44
2023-02-11T06:25:17.436Z,101072.66
2023-02-11T06:28:19.750Z,101061.53
2023-02-11T06:31:22.111Z,101061.16
2023-02-11T06:34:24.134Z,101052.88
2023-02-11T06:37:25.961Z,101040.31
2023-02-11T06:40:27.807Z,101038.72
2023-02-11T06:43:29.658Z,101035.09
2023-02-11T06:46:31.909Z,101025.75
2023-02-11T06:49:33.844Z,101027.34
2023-02-11T06:52:35.662Z,101035.84
2023-02-11T06:55:37.578Z,101036.41
2023-02-11T06:58:39.758Z,101032.44
2023-02-11T07:01:41.711Z,101040.47
2023-02-11T07:04:44.062Z,101029.19
2023-02-11T07:07:46.010Z,101023.31
2023-02-11T07:10:47.975Z,101028.56
2023-02-11T07:13:51.387Z,101040.03
2023-02-11T07:16:53.255Z,101028.75
2023-02-11T07:19:55.083Z,101023.72
2023-02-11T07:22:57.044Z,101017.34
2023-02-11T07:26:03.669Z,101024.97
2023-02-11T07:29:05.790Z,101019.69
2023-02-11T07:32:07.674Z,101029.66
2023-02-11T07:35:09.562Z,101022.84
2023-02-11T07:38:11.387Z,101023.28
2023-02-11T07:41:16.013Z,101025.38
2023-02-11T07:44:17.866Z,101032.19
2023-02-11T07:47:19.879Z,101029.09
2023-02-11T07:50:21.998Z,101027.34
2023-02-11T07:53:24.070Z,101024.91
2023-02-11T07:56:26.387Z,101039.31
2023-02-11T07:59:28.722Z,101041.84
2023-02-11T08:02:30.583Z,101045.41
2023-02-11T08:05:32.425Z,101045.63
2023-02-11T08:08:34.612Z,101055.56
2023-02-11T08:11:37.005Z,101051.50
2023-02-11T08:14:39.036Z,101054.47
2023-02-11T08:17:41.007Z,101048.59
2023-02-11T08:20:43.018Z,101045.47
2023-02-11T08:23:46.428Z,101027.50
2023-02-11T08:26:48.769Z,101022.22
2023-02-11T08:29:50.690Z,101009.09
2023-02-11T08:32:52.776Z,100996.63
2023-02-11T08:35:54.624Z,101008.97
2023-02-11T08:39:16.084Z,101017.53
2023-02-11T08:42:21.979Z,101015.97
2023-02-11T08:45:23.918Z,101015.78
2023-02-11T08:48:26.274Z,101016.06
2023-02-11T08:51:33.040Z,101008.41
2023-02-11T08:54:35.035Z,101000.19
2023-02-11T08:57:36.985Z,101000.03
2023-02-11T09:00:38.943Z,100994.28
2023-02-11T09:03:41.183Z,100995.31
2023-02-11T09:06:43.240Z,100995.66
2023-02-11T09:09:45.248Z,100995.91
2023-02-11T09:12:47.171Z,100993.69
2023-02-11T09:15:49.040Z,100993.31
2023-02-11T09:18:53.669Z,100982.78
2023-02-11T09:21:55.959Z,100981.91
2023-02-11T09:24:57.926Z,100987.75
2023-02-11T09:27:59.847Z,100976.94
2023-02-11T09:31:09.247Z,100972.09
2023-02-11T09:34:11.870Z,100981.28
2023-02-11T09:37:13.953Z,100989.19
2023-02-11T09:40:16.880Z,100989.56
2023-02-11T09:43:22.720Z,100984.69
2023-02-11T09:46:27.688Z,100992.19
2023-02-11T09:49:44.383Z,100990.25
2023-02-11T09:53:07.614Z,100996.88
2023-02-11T09:56:14.836Z,101000.22
2023-02-11T09:59:17.682Z,100975.13
2023-02-11T10:02:24.127Z,100975.94
2023-02-11T10:05:52.541Z,100959.47
2023-02-11T10:09:11.857Z,100943.25
2023-02-11T10:12:37.547Z,100939.94
2023-02-11T10:16:08.403Z,100932.44
2023-02-11T10:19:19.314Z,100933.47
2023-02-11T10:22:43.139Z,100924.97
2023-02-11T10:25:49.116Z,100898.75
2023-02-11T10:28:54.371Z,100904.88
2023-02-11T10:31:58.558Z,100908.50
2023-02-11T10:35:04.367Z,100911.72
2023-02-11T10:38:06.330Z,100908.47
2023-02-11T10:41:15.315Z,100893.38
2023-02-11T10:44:30.136Z,100904.91
2023-02-11T10:47:39.669Z,100914.34
2023-02-11T10:50:41.535Z,100895.00
2023-02-11T10:53:43.725Z,100899.88
2023-02-11T10:56:50.224Z,100895.03
2023-02-11T10:59:58.363Z,100890.09
2023-02-11T11:03:01.945Z,100884.22
2023-02-11T11:06:09.328Z,100882.53
2023-02-11T11:09:28.839Z,100880.81
2023-02-11T11:12:35.092Z,100869.13
2023-02-11T11:15:37.028Z,100858.09
2023-02-11T11:18:40.597Z,100853.00
2023-02-11T12:07:32.735Z,100791.22
2023-02-11T12:10:55.362Z,100775.94
2023-02-11T12:14:40.161Z,100774.16
2023-02-11T12:17:51.091Z,100768.16
2023-02-11T12:21:30.326Z,100752.03
2023-02-11T12:24:42.557Z,100732.69
2023-02-11T12:28:13.562Z,100718.13
2023-02-11T12:31:24.277Z,100715.69
2023-02-11T12:34:50.666Z,100699.41
2023-02-11T12:38:08.381Z,100706.13
2023-02-11T12:41:46.344Z,100715.28
2023-02-11T12:45:12.856Z,100724.47
2023-02-11T12:48:45.393Z,100730.53
2023-02-11T12:51:50.377Z,100739.06
2023-02-11T12:55:09.459Z,100724.44
2023-02-11T12:58:35.644Z,100728.69
2023-02-11T13:01:45.191Z,100727.91
2023-02-11T13:04:54.257Z,100713.09
2023-02-11T13:08:04.624Z,100686.78
2023-02-11T13:11:17.278Z,100668.91
2023-02-11T13:14:24.525Z,100642.63
2023-02-11T13:17:34.951Z,100628.16
2023-02-11T13:21:03.581Z,100631.53
2023-02-11T13:24:13.480Z,100640.81
2023-02-11T13:27:41.510Z,100638.94
2023-02-11T13:30:51.410Z,100616.13
2023-02-11T13:33:53.824Z,100626.25
2023-02-11T13:36:57.414Z,100624.47
2023-02-11T13:40:21.224Z,100628.63
2023-02-11T13:43:28.423Z,100632.19
2023-02-11T13:46:54.167Z,100619.53
2023-02-11T13:49:57.013Z,100621.31
2023-02-11T13:53:01.278Z,100624.66
2023-02-11T13:56:11.413Z,100615.16
2023-02-11T13:59:25.872Z,100599.69
2023-02-11T14:02:56.045Z,100593.91
2023-02-11T14:06:28.804Z,100589.41
2023-02-11T14:09:37.064Z,100590.28
2023-02-11T14:12:39.348Z,100604.66
2023-02-11T14:15:41.209Z,100608.00
2023-02-11T14:18:49.352Z,100618.00
2023-02-11T14:21:53.666Z,100622.44
2023-02-11T14:25:04.726Z,100629.81
2023-02-11T14:28:22.372Z,100628.03
2023-02-11T14:31:36.106Z,100625.59
2023-02-11T14:34:46.688Z,100638.03
2023-02-11T14:37:55.860Z,100639.06
2023-02-11T14:41:10.854Z,100635.72
2023-02-11T14:44:27.926Z,100613.66
2023-02-11T14:47:46.553Z,100605.25
2023-02-11T14:51:10.653Z,100604.69
2023-02-11T14:54:17.362Z,100590.44
2023-02-11T14:57:20.556Z,100587.94
2023-02-11T15:00:23.117Z,100565.09
2023-02-11T15:03:31.993Z,100573.81
2023-02-11T15:06:39.974Z,100560.41
2023-02-11T15:09:45.712Z,100561.28
2023-02-11T15:12:49.358Z,100553.78
2023-02-11T15:15:56.294Z,100564.84
2023-02-11T15:19:02.821Z,100556.41
2023-02-11T15:22:07.331Z,100556.50
2023-02-11T15:25:15.027Z,100551.47
2023-02-11T15:28:28.993Z,100539.69
2023-02-11T15:31:33.867Z,100527.97
2023-02-11T15:34:37.553Z,100529.78
2023-02-11T15:37:40.723Z,100523.09
2023-02-11T15:40:55.956Z,100529.13
2023-02-11T15:43:57.918Z,100519.84
2023-02-11T15:47:00.367Z,100546.09
2023-02-11T15:50:03.097Z,100534.31
2023-02-11T15:53:24.340Z,100519.97
2023-02-11T15:56:30.589Z,100547.03
2023-02-11T15:59:39.322Z,100560.53
2023-02-11T16:02:46.675Z,100548.75
2023-02-11T16:05:48.958Z,100555.53
2023-02-11T16:09:06.301Z,100554.63
2023-02-11T16:12:27.207Z,100539.41
2023-02-11T16:15:50.926Z,100540.25
2023-02-11T16:19:04.851Z,100532.63
2023-02-11T16:22:10.603Z,100526.69
2023-02-11T16:25:20.759Z,100524.97
2023-02-11T16:28:23.004Z,100526.66
2023-02-11T16:31:33.530Z,100515.69
2023-02-11T16:34:36.547Z,100515.72
2023-02-11T16:37:38.624Z,100532.63
2023-02-11T16:40:41.148Z,100542.78
2023-02-11T16:43:43.263Z,100558.00
2023-02-11T16:46:45.670Z,100544.47
2023-02-11T16:49:47.997Z,100558.84
2023-02-11T16:52:52.299Z,100577.41
2023-02-11T16:55:54.203Z,100574.03
2023-02-11T16:58:56.564Z,100579.94
2023-02-11T17:01:58.545Z,100590.88
2023-02-11T17:05:03.445Z,100589.13
2023-02-11T17:08:06.483Z,100582.38
2023-02-11T17:11:08.615Z,100583.19
2023-02-11T17:14:10.762Z,100564.53
2023-02-11T17:17:13.910Z,100572.13
2023-02-11T17:20:16.427Z,100546.81
2023-02-11T17:23:18.491Z,100550.22
2023-02-11T17:26:20.643Z,100509.53
2023-02-11T17:29:24.533Z,100518.88
2023-02-11T17:32:26.677Z,100544.28
2023-02-11T17:35:28.847Z,100540.94
2023-02-11T17:38:30.880Z,100536.72
2023-02-11T17:41:33.302Z,100517.25
2023-02-11T17:44:35.769Z,100518.13
2023-02-11T17:47:37.997Z,100513.06
2023-02-11T17:50:40.079Z,100506.31
2023-02-11T17:53:42.230Z,100536.78
2023-02-11T17:56:45.438Z,100551.19
2023-02-11T17:59:48.032Z,100540.19
2023-02-11T18:02:50.377Z,100533.41
2023-02-11T18:09:12.072Z,100524.16
2023-02-11T18:12:14.345Z,100524.13
2023-02-11T18:15:16.608Z,100530.94
2023-02-11T18:18:18.432Z,100541.03
2023-02-11T18:21:22.355Z,100519.03
2023-02-11T18:24:24.479Z,100525.81
2023-02-11T18:27:28.108Z,100522.38
2023-02-11T18:30:33.913Z,100520.72
2023-02-11T18:33:37.587Z,100509.69
2023-02-11T18:36:39.846Z,100502.09
2023-02-11T18:39:42.909Z,100513.97
2023-02-11T18:42:46.273Z,100499.63
2023-02-11T18:45:50.489Z,100515.78
2023-02-11T18:48:56.001Z,100514.94
2023-02-11T18:51:58.868Z,100511.53
2023-02-11T18:55:01.006Z,100513.22
2023-02-11T18:58:03.207Z,100519.97
2023-02-11T19:01:27.564Z,100522.53
2023-02-11T19:04:29.841Z,100516.56
2023-02-11T19:07:32.587Z,100513.94
2023-02-11T19:10:34.840Z,100522.44
2023-02-11T19:13:37.421Z,100513.13
2023-02-11T19:16:41.909Z,100516.53
2023-02-11T19:19:44.059Z,100519.06
2023-02-11T19:22:46.170Z,100515.63
2023-02-11T19:25:48.607Z,100494.47
2023-02-11T19:28:50.735Z,100481.69
2023-02-11T19:31:53.043Z,100490.00
2023-02-11T19:34:55.276Z,100499.41
2023-02-11T19:37:57.411Z,100537.66
2023-02-11T19:40:59.508Z,100522.38
2023-02-11T19:44:02.868Z,100519.88
2023-02-11T19:47:06.964Z,100521.53
2023-02-11T19:50:09.618Z,100532.56
2023-02-11T19:53:11.749Z,100535.06
2023-02-11T19:56:15.502Z,100535.84
2023-02-11T19:59:17.711Z,100516.34
2023-02-11T20:02:20.794Z,100514.69
2023-02-11T20:05:22.991Z,100523.97
2023-02-11T20:08:24.953Z,100533.28
2023-02-11T20:11:28.899Z,100508.63
2023-02-11T20:14:31.684Z,100510.47
2023-02-11T20:17:33.931Z,100516.25
2023-02-11T20:20:41.304Z,100518.72
2023-02-11T20:23:46.506Z,100505.25
2023-02-11T20:26:49.349Z,100518.03
2023-02-11T20:29:51.540Z,100504.31
2023-02-11T20:32:53.450Z,100511.84
2023-02-11T20:35:57.997Z,100498.22
2023-02-11T20:39:01.208Z,100511.81
2023-02-11T20:42:03.810Z,100506.16
2023-02-11T20:45:06.082Z,100505.31
2023-02-11T20:48:08.304Z,100512.13
2023-02-11T20:51:17.535Z,100522.25
2023-02-11T20:54:21.007Z,100526.34
2023-02-11T20:57:23.147Z,100526.34
2023-02-11T21:00:25.642Z,100517.78
2023-02-11T21:03:27.771Z,100516.25
2023-02-11T21:06:39.987Z,100526.28
2023-02-11T21:09:42.371Z,100517.78
2023-02-11T21:12:44.540Z,100506.56
2023-02-11T21:15:46.407Z,100498.91
2023-02-11T21:18:52.465Z,100483.72
2023-02-11T21:21:57.273Z,100502.41
2023-02-11T21:25:01.056Z,100498.22
2023-02-11T21:28:03.616Z,100509.13
2023-02-11T21:31:05.817Z,100508.28
2023-02-11T21:34:08.620Z,100515.09
2023-02-11T21:37:10.670Z,100534.53
2023-02-11T21:40:14.830Z,100528.53
2023-02-11T21:43:16.946Z,100522.69
2023-02-11T21:46:19.846Z,100526.91
2023-02-11T21:49:21.836Z,100524.34
2023-02-11T21:52:24.171Z,100505.81
2023-02-11T21:55:26.279Z,100514.34
2023-02-11T21:58:28.322Z,100506.00
2023-02-11T22:01:35.233Z,100508.59
2023-02-11T22:04:37.168Z,100520.53
2023-02-11T22:07:39.086Z,100521.41
2023-02-11T22:10:41.076Z,100522.31
2023-02-11T22:13:43.187Z,100525.78
2023-02-11T22:16:47.561Z,100516.50
2023-02-11T22:19:50.042Z,100523.41
2023-02-11T22:22:51.966Z,100520.91
2023-02-11T22:25:54.103Z,100522.59
2023-02-11T22:28:56.924Z,100516.69
2023-02-11T22:31:59.398Z,100510.78
2023-02-11T22:35:01.368Z,100518.38
2023-02-11T22:38:04.504Z,100511.69
2023-02-11T22:41:09.177Z,100517.59
2023-02-11T22:44:12.014Z,100523.50
2023-02-11T22:47:13.911Z,100520.13
2023-02-11T22:50:16.190Z,100521.81
2023-02-11T22:53:18.514Z,100525.22
2023-02-11T22:56:20.664Z,100523.53
2023-02-11T22:59:22.837Z,100515.09
2023-02-11T23:02:24.837Z,100521.84
2023-02-11T23:05:27.391Z,100541.28
2023-02-11T23:08:30.967Z,100535.34
2023-02-11T23:11:33.794Z,100542.09
2023-02-11T23:14:35.954Z,100537.03
2023-02-11T23:17:37.827Z,100549.72
2023-02-11T23:20:42.842Z,100546.31
2023-02-11T23:23:45.237Z,100542.91
2023-02-11T23:26:47.128Z,100536.19
2023-02-11T23:29:49.585Z,100545.44
2023-02-11T23:32:52.750Z,100544.59
2023-02-11T23:35:54.936Z,100543.78
2023-02-11T23:38:56.990Z,100541.25
2023-02-11T23:41:59.606Z,100538.72
2023-02-11T23:45:01.896Z,100558.97
2023-02-11T23:48:10.349Z,100550.53
2023-02-11T23:51:12.240Z,100553.06
2023-02-11T23:54:14.799Z,100545.47
2023-02-11T23:57:16.942Z,100551.38
